Time;durP1;ratioP1;P1;durP2;ratioP2;P2;SDS_P1;SDS_P2;PMS_P1;PMS_P2;Temp;Humidity;BMP_temperature;BMP_pressure;BME280_temperature;BME280_humidity;BME280_pressure;Samples;Min_cycle;Max_cycle;Signal;HPM_P1;HPM_P2
2022/01/02 00:00:08;;;;;;;18.50;11.97;;;;;;;9.08;100.00;95496.22;5068614;28;20284;-83
2022/01/02 00:02:38;;;;;;;18.47;12.90;;;;;;;9.19;100.00;95489.69;5068199;28;20205;-74
2022/01/02 00:05:11;;;;;;;17.27;12.57;;;;;;;9.33;100.00;95499.19;5067616;28;20193;-76
2022/01/02 00:07:45;;;;;;;17.83;12.20;;;;;;;9.24;100.00;95503.69;5068796;28;20193;-76
2022/01/02 00:10:15;;;;;;;19.90;13.07;;;;;;;9.21;100.00;95506.66;5064223;28;20259;-76
2022/01/02 00:12:51;;;;;;;19.53;12.20;;;;;;;9.23;100.00;95517.69;5070509;28;20984;-76
2022/01/02 00:15:21;;;;;;;18.17;12.07;;;;;;;9.26;100.00;95519.09;5068315;28;20228;-76
2022/01/02 00:17:52;;;;;;;16.37;11.57;;;;;;;9.29;100.00;95508.34;5064982;28;20197;-76
2022/01/02 00:20:31;;;;;;;17.77;11.63;;;;;;;9.30;100.00;95512.53;5067195;28;20228;-75
2022/01/02 00:23:06;;;;;;;17.87;12.33;;;;;;;9.40;100.00;95500.84;5064317;28;20205;-75
2022/01/02 00:25:39;;;;;;;17.90;11.40;;;;;;;9.43;100.00;95516.03;5065076;28;20236;-76
2022/01/02 00:28:09;;;;;;;16.30;10.93;;;;;;;9.32;100.00;95505.38;5066825;28;20197;-75
2022/01/02 00:30:38;;;;;;;17.53;12.07;;;;;;;9.23;100.00;95512.50;5066205;28;20895;-78
2022/01/02 00:33:06;;;;;;;18.80;11.90;;;;;;;9.36;100.00;95498.81;5067008;28;20604;-78
2022/01/02 00:35:36;;;;;;;16.93;10.93;;;;;;;9.32;100.00;95505.38;5069398;28;20206;-78
2022/01/02 00:38:06;;;;;;;15.57;11.03;;;;;;;9.27;100.00;95505.13;5067853;28;20240;-77
2022/01/02 00:40:40;;;;;;;16.87;11.30;;;;;;;9.36;100.00;95504.00;5066995;28;20209;-77
2022/01/02 00:43:14;;;;;;;15.77;11.23;;;;;;;9.26;100.00;95506.94;5070457;28;20309;-78
2022/01/02 00:45:47;;;;;;;15.83;11.10;;;;;;;9.38;100.00;95505.41;5067213;28;20202;-78
2022/01/02 00:48:20;;;;;;;17.57;11.83;;;;;;;9.44;100.00;95507.25;5066674;28;20197;-78
2022/01/02 00:50:52;;;;;;;17.47;11.33;;;;;;;9.48;100.00;95505.06;5077187;28;20205;-78
2022/01/02 00:53:22;;;;;;;16.37;11.43;;;;;;;9.46;100.00;95510.47;5066948;28;20207;-78
2022/01/02 00:55:58;;;;;;;16.07;10.50;;;;;;;9.50;100.00;95505.69;5067163;28;20236;-77
2022/01/02 00:58:36;;;;;;;17.43;11.10;;;;;;;9.37;100.00;95508.19;5073297;28;20296;-79
2022/01/02 01:01:07;;;;;;;16.17;10.70;;;;;;;9.39;100.00;95509.59;5066905;28;20211;-78
2022/01/02 01:03:37;;;;;;;14.67;10.30;;;;;;;9.51;100.00;95512.47;5068926;28;20244;-77
2022/01/02 01:06:11;;;;;;;17.07;11.27;;;;;;;9.56;100.00;95510.91;5068941;28;20288;-79
2022/01/02 01:08:41;;;;;;;19.07;12.37;;;;;;;9.50;100.00;95500.47;5073878;28;20299;-78
2022/01/02 01:11:11;;;;;;;15.50;11.87;;;;;;;9.58;100.00;95523.72;5079135;28;20200;-79
2022/01/02 01:13:39;;;;;;;15.17;10.97;;;;;;;9.58;100.00;95521.13;5076289;28;20205;-80
2022/01/02 01:16:08;;;;;;;17.83;12.20;;;;;;;9.57;100.00;95527.28;5074963;28;20217;-80
2022/01/02 01:18:37;;;;;;;20.13;12.53;;;;;;;9.50;100.00;95532.44;5070788;28;20201;-80
2022/01/02 01:21:07;;;;;;;16.73;11.80;;;;;;;9.55;100.00;95524.88;5077826;28;20304;-80
2022/01/02 01:23:35;;;;;;;16.27;11.50;;;;;;;9.60;100.00;95529.50;5079645;28;20233;-80
2022/01/02 01:26:07;;;;;;;19.53;12.93;;;;;;;9.58;100.00;95529.69;5065250;28;20211;-79
2022/01/02 01:28:36;;;;;;;17.23;11.90;;;;;;;9.57;100.00;95522.09;5071404;28;20205;-78
2022/01/02 01:31:05;;;;;;;18.67;13.23;;;;;;;9.56;100.00;95516.09;5071643;28;20215;-79
2022/01/02 01:33:33;;;;;;;20.57;13.73;;;;;;;9.57;100.00;95516.91;5073054;28;20197;-79
2022/01/02 01:36:01;;;;;;;25.07;15.03;;;;;;;9.50;100.00;95503.88;5080011;28;20205;-78
2022/01/02 01:38:31;;;;;;;20.97;14.17;;;;;;;9.57;100.00;95515.13;5069892;28;20202;-79
2022/01/02 01:41:05;;;;;;;18.27;12.70;;;;;;;9.59;100.00;95517.50;5071644;28;20216;-79
2022/01/02 01:43:40;;;;;;;18.60;12.00;;;;;;;9.61;100.00;95520.72;5071536;28;20220;-78
2022/01/02 01:46:09;;;;;;;17.57;12.60;;;;;;;9.67;100.00;95523.34;5072180;28;20204;-78
2022/01/02 01:48:37;;;;;;;16.30;11.80;;;;;;;9.65;100.00;95519.34;5070692;28;20201;-79
2022/01/02 01:51:06;;;;;;;16.50;11.07;;;;;;;9.64;100.00;95520.34;5078499;28;20215;-79
2022/01/02 01:53:35;;;;;;;15.17;10.97;;;;;;;9.65;100.00;95525.34;5068021;28;20617;-78
2022/01/02 01:56:04;;;;;;;13.03;10.00;;;;;;;9.44;100.00;95509.03;5072991;28;20257;-78
2022/01/02 01:58:34;;;;;;;17.70;11.20;;;;;;;9.57;100.00;95524.69;5077146;28;20668;-78
2022/01/02 02:01:04;;;;;;;14.77;9.97;;;;;;;9.43;100.00;95508.25;5071504;28;20204;-78
2022/01/02 02:03:33;;;;;;;14.10;9.80;;;;;;;9.42;100.00;95524.78;5077024;28;20224;-78
2022/01/02 02:06:01;;;;;;;15.87;9.97;;;;;;;9.52;100.00;95517.47;5074754;28;20258;-78
2022/01/02 02:08:29;;;;;;;16.40;10.00;;;;;;;9.50;100.00;95509.06;5076251;28;20691;-78
2022/01/02 02:11:00;;;;;;;15.77;10.50;;;;;;;9.42;100.00;95516.19;5076749;28;20213;-77
2022/01/02 02:13:30;;;;;;;13.20;9.70;;;;;;;9.48;100.00;95512.84;5078557;28;20236;-78
2022/01/02 02:16:00;;;;;;;15.30;9.93;;;;;;;9.60;100.00;95516.53;5076647;28;20263;-78
2022/01/02 02:18:28;;;;;;;14.57;10.33;;;;;;;9.63;100.00;95498.00;5081663;28;20215;-79
2022/01/02 02:21:05;;;;;;;14.40;10.07;;;;;;;9.77;100.00;95522.22;5073911;28;20316;-79
2022/01/02 02:23:34;;;;;;;17.60;11.00;;;;;;;9.76;100.00;95505.03;5079292;28;20907;-79
2022/01/02 02:26:02;;;;;;;17.17;10.73;;;;;;;9.74;100.00;95507.84;5068048;28;20255;-78
2022/01/02 02:28:31;;;;;;;13.70;10.03;;;;;;;9.61;100.00;95490.38;5071933;28;20666;-74
2022/01/02 02:31:00;;;;;;;16.73;10.40;;;;;;;9.71;100.00;95513.41;5070922;28;20293;-76
2022/01/02 02:33:28;;;;;;;16.10;10.77;;;;;;;9.78;100.00;95510.84;5073238;28;20611;-76
2022/01/02 02:35:57;;;;;;;16.40;10.57;;;;;;;9.63;100.00;95514.38;5069054;28;20729;-76
2022/01/02 02:38:27;;;;;;;14.17;10.07;;;;;;;9.58;100.00;95508.16;5072413;28;20201;-76
2022/01/02 02:40:56;;;;;;;14.87;9.70;;;;;;;9.46;100.00;95513.06;5070368;28;20212;-75
2022/01/02 02:43:30;;;;;;;12.60;9.40;;;;;;;9.38;100.00;95520.19;5069744;28;20229;-76
2022/01/02 02:49:03;;;;;;;12.60;9.30;;;;;;;9.43;100.00;95512.63;5067883;28;20283;-76
2022/01/02 02:51:45;;;;;;;13.13;9.90;;;;;;;9.39;100.00;95514.78;5067046;28;20259;-75
2022/01/02 02:54:19;;;;;;;16.13;9.70;;;;;;;9.43;100.00;95513.44;5069833;28;20215;-75
2022/01/02 02:56:55;;;;;;;15.63;9.40;;;;;;;9.42;100.00;95518.81;5071701;28;20228;-75
2022/01/02 02:59:25;;;;;;;13.27;9.67;;;;;;;9.41;100.00;95519.78;5065577;28;20288;-75
2022/01/02 03:01:54;;;;;;;13.90;9.60;;;;;;;9.47;100.00;95524.22;5069816;28;20722;-75
2022/01/02 03:04:23;;;;;;;12.47;9.53;;;;;;;9.53;100.00;95528.66;5069414;28;20676;-75
2022/01/02 03:06:52;;;;;;;13.03;9.57;;;;;;;9.43;100.00;95520.41;5069696;28;20614;-75
2022/01/02 03:09:36;;;;;;;14.97;10.20;;;;;;;9.48;100.00;95536.22;5074767;28;20725;-76
2022/01/02 03:12:05;;;;;;;14.27;10.30;;;;;;;9.49;100.00;95527.44;5068877;28;20209;-75
2022/01/02 03:14:34;;;;;;;15.20;10.43;;;;;;;9.49;100.00;95530.03;5069480;28;20229;-75
2022/01/02 03:17:03;;;;;;;19.43;12.10;;;;;;;9.60;100.00;95538.09;5070673;28;20240;-76
2022/01/02 03:19:31;;;;;;;18.93;11.73;;;;;;;9.63;100.00;95542.91;5075156;28;20292;-78
2022/01/02 03:22:00;;;;;;;19.23;12.63;;;;;;;9.54;100.00;95538.84;5069960;28;20205;-77
2022/01/02 03:24:30;;;;;;;19.07;12.83;;;;;;;9.45;100.00;95539.19;5068511;28;20223;-76
2022/01/02 03:26:58;;;;;;;17.27;11.23;;;;;;;9.48;100.00;95525.84;5069626;28;20221;-75
2022/01/02 03:29:27;;;;;;;13.80;9.97;;;;;;;9.68;100.00;95537.13;5071940;28;20229;-76
2022/01/02 03:31:55;;;;;;;14.43;10.40;;;;;;;9.66;100.00;95541.72;5074618;28;20640;-76
2022/01/02 03:34:24;;;;;;;12.33;9.23;;;;;;;9.56;100.00;95541.25;5068166;28;20190;-76
2022/01/02 03:36:53;;;;;;;16.20;9.80;;;;;;;9.58;100.00;95545.25;5070293;28;20235;-76
2022/01/02 03:39:24;;;;;;;14.60;10.30;;;;;;;9.68;100.00;95543.13;5070854;28;20217;-76
2022/01/02 03:41:53;;;;;;;12.77;9.40;;;;;;;9.53;100.00;95539.84;5074287;28;20212;-76
2022/01/02 03:44:22;;;;;;;12.70;9.40;;;;;;;9.46;100.00;95535.59;5075236;28;20252;-76
2022/01/02 03:46:50;;;;;;;14.40;9.83;;;;;;;9.60;100.00;95548.47;5069131;28;20285;-77
2022/01/02 03:49:19;;;;;;;13.93;9.70;;;;;;;9.58;100.00;95537.47;5068893;28;20198;-77
2022/01/02 03:51:47;;;;;;;14.03;10.07;;;;;;;9.55;100.00;95526.69;5069082;28;20255;-77
2022/01/02 03:54:16;;;;;;;15.13;9.67;;;;;;;9.58;100.00;95539.28;5076272;28;20197;-77
2022/01/02 03:56:44;;;;;;;15.17;10.63;;;;;;;9.60;100.00;95543.28;5075523;28;20209;-76
2022/01/02 03:59:15;;;;;;;16.13;11.10;;;;;;;9.60;100.00;95538.09;5069626;28;20208;-77
2022/01/02 04:01:43;;;;;;;15.70;10.27;;;;;;;9.70;100.00;95541.16;5066461;28;20193;-77
2022/01/02 04:04:11;;;;;;;14.90;10.60;;;;;;;9.62;100.00;95543.91;5060795;28;20233;-77
2022/01/02 04:06:40;;;;;;;16.57;10.23;;;;;;;9.61;100.00;95538.88;5066737;28;20240;-77
2022/01/02 04:09:08;;;;;;;13.77;9.47;;;;;;;9.47;100.00;95543.19;5068363;28;20683;-78
2022/01/02 04:11:37;;;;;;;14.43;9.20;;;;;;;9.48;100.00;95555.19;5065277;28;20231;-77
2022/01/02 04:14:05;;;;;;;13.60;9.50;;;;;;;9.24;100.00;95537.41;5067070;28;20695;-76
2022/01/02 04:16:35;;;;;;;12.93;9.00;;;;;;;9.23;100.00;95551.41;5070639;28;20209;-75
2022/01/02 04:19:04;;;;;;;13.77;9.60;;;;;;;9.20;100.00;95550.97;5068452;28;20778;-76
2022/01/02 04:21:33;;;;;;;14.60;10.00;;;;;;;9.29;100.00;95570.59;5067487;28;20205;-76
2022/01/02 04:24:01;;;;;;;12.93;9.13;;;;;;;9.20;100.00;95556.97;5067555;28;20221;-75
2022/01/02 04:26:30;;;;;;;14.13;9.63;;;;;;;9.26;100.00;95565.78;5066987;28;20209;-76
2022/01/02 04:29:00;;;;;;;14.90;10.10;;;;;;;9.25;100.00;95566.75;5067505;28;20217;-75
2022/01/02 04:31:28;;;;;;;13.27;9.47;;;;;;;9.28;100.00;95554.22;5068596;28;20733;-75
2022/01/02 04:33:58;;;;;;;12.93;9.23;;;;;;;9.39;100.00;95561.50;5066350;28;21332;-76
2022/01/02 04:36:27;;;;;;;13.33;9.60;;;;;;;9.45;100.00;95563.34;5067204;28;20209;-76
2022/01/02 04:38:56;;;;;;;14.27;9.83;;;;;;;9.39;100.00;95565.88;5070209;28;20655;-76
2022/01/02 04:41:25;;;;;;;14.97;10.90;;;;;;;9.38;100.00;95557.28;5068694;28;20215;-75
2022/01/02 04:43:54;;;;;;;15.30;10.67;;;;;;;9.44;100.00;95553.13;5066667;28;20236;-75
2022/01/02 04:46:22;;;;;;;17.27;11.90;;;;;;;9.44;100.00;95553.13;5068071;28;20201;-76
2022/01/02 04:48:50;;;;;;;15.47;10.93;;;;;;;9.49;100.00;95561.16;5067644;28;20200;-75
2022/01/02 04:51:20;;;;;;;14.33;10.40;;;;;;;9.44;100.00;95566.91;5067903;28;20205;-75
2022/01/02 04:53:49;;;;;;;14.73;10.67;;;;;;;9.26;100.00;95560.59;5067517;28;20249;-76
2022/01/02 04:56:18;;;;;;;17.03;11.53;;;;;;;9.29;100.00;95566.22;5068005;28;20206;-75
2022/01/02 04:58:47;;;;;;;15.23;10.30;;;;;;;9.26;100.00;95569.19;5066587;28;20206;-76
2022/01/02 05:01:16;;;;;;;17.83;11.60;;;;;;;9.31;100.00;95576.38;5070641;28;20623;-76
2022/01/02 05:03:46;;;;;;;19.73;12.50;;;;;;;9.26;100.00;95553.63;5070025;28;20213;-75
2022/01/02 05:06:14;;;;;;;19.27;12.30;;;;;;;9.35;100.00;95569.84;5064640;28;20806;-75
2022/01/02 05:08:46;;;;;;;15.53;11.47;;;;;;;9.28;100.00;95567.19;5067130;28;20197;-76
2022/01/02 05:11:15;;;;;;;15.73;10.40;;;;;;;9.27;100.00;95564.78;5064928;28;20630;-76
2022/01/02 05:13:44;;;;;;;15.50;11.03;;;;;;;9.29;100.00;95565.41;5066222;28;20228;-76
2022/01/02 05:16:13;;;;;;;16.60;11.50;;;;;;;9.32;100.00;95570.22;5074329;28;20287;-76
2022/01/02 05:18:41;;;;;;;17.23;12.13;;;;;;;9.29;100.00;95571.41;5068842;28;20635;-75
2022/01/02 05:21:10;;;;;;;16.57;11.83;;;;;;;9.23;100.00;95563.56;5066165;28;20258;-75
2022/01/02 05:23:39;;;;;;;14.97;11.13;;;;;;;9.27;100.00;95577.75;5069266;28;20233;-76
2022/01/02 05:26:09;;;;;;;17.23;11.60;;;;;;;9.29;100.00;95575.78;5067833;28;20203;-75
2022/01/02 05:28:37;;;;;;;14.97;11.50;;;;;;;9.27;100.00;95575.94;5067999;28;20218;-75
2022/01/02 05:31:06;;;;;;;17.87;11.83;;;;;;;9.25;100.00;95577.13;5066830;28;20206;-76
2022/01/02 05:33:34;;;;;;;19.67;13.17;;;;;;;9.27;100.00;95573.34;5069905;28;20215;-75
2022/01/02 05:36:03;;;;;;;20.83;13.77;;;;;;;9.17;100.00;95578.06;5066620;28;20805;-76
2022/01/02 05:38:31;;;;;;;21.47;14.13;;;;;;;9.13;100.00;95584.59;5069119;28;20222;-75
2022/01/02 05:41:00;;;;;;;20.20;13.50;;;;;;;9.06;100.00;95584.53;5070881;28;20266;-75
2022/01/02 05:43:30;;;;;;;19.80;12.17;;;;;;;9.10;100.00;95580.59;5066750;28;20217;-74
2022/01/02 05:46:05;;;;;;;18.03;11.97;;;;;;;9.01;100.00;95586.09;5068195;28;20327;-75
2022/01/02 05:48:34;;;;;;;15.13;10.93;;;;;;;8.84;100.00;95588.13;5063485;28;20204;-74
2022/01/02 05:51:02;;;;;;;16.13;10.23;;;;;;;8.81;100.00;95598.03;5067864;28;20259;-74
2022/01/02 05:53:32;;;;;;;13.37;9.90;;;;;;;8.83;100.00;95594.28;5067849;28;20207;-76
2022/01/02 05:56:00;;;;;;;16.47;9.93;;;;;;;8.83;100.00;95589.09;5071006;28;20201;-75
2022/01/02 05:58:31;;;;;;;15.07;9.77;;;;;;;8.79;100.00;95581.88;5065571;28;20206;-75
2022/01/02 06:00:59;;;;;;;16.60;11.17;;;;;;;8.87;100.00;95590.34;5067025;28;20239;-75
2022/01/02 06:03:28;;;;;;;17.43;11.80;;;;;;;8.90;100.00;95591.75;5067184;28;20226;-76
2022/01/02 06:05:56;;;;;;;15.70;11.07;;;;;;;8.73;100.00;95575.66;5070670;28;20209;-76
2022/01/02 06:08:25;;;;;;;17.53;11.37;;;;;;;8.82;100.00;95597.06;5070920;28;20224;-76
2022/01/02 06:10:54;;;;;;;20.30;11.73;;;;;;;8.83;100.00;95598.69;5071043;28;20291;-76
2022/01/02 06:13:22;;;;;;;20.70;11.57;;;;;;;8.87;100.00;95599.91;5070219;28;20904;-76
2022/01/02 06:15:52;;;;;;;15.37;10.67;;;;;;;8.95;100.00;95602.38;5072498;28;20651;-75
2022/01/02 06:18:20;;;;;;;19.53;12.03;;;;;;;9.00;100.00;95587.88;5070613;28;20201;-78
2022/01/02 06:20:48;;;;;;;21.50;14.37;;;;;;;9.16;100.00;95604.19;5071984;28;20209;-78
2022/01/02 06:23:17;;;;;;;22.13;13.93;;;;;;;9.24;100.00;95617.00;5075716;28;20201;-76
2022/01/02 06:25:47;;;;;;;22.47;14.50;;;;;;;9.21;100.00;95609.59;5070613;28;20201;-76
2022/01/02 06:28:16;;;;;;;25.43;16.60;;;;;;;9.20;100.00;95608.81;5077259;28;20204;-76
2022/01/02 06:30:44;;;;;;;26.10;15.77;;;;;;;9.08;100.00;95590.38;5071127;28;20226;-77
2022/01/02 06:33:14;;;;;;;22.97;14.37;;;;;;;9.16;100.00;95620.53;5073818;28;20250;-77
2022/01/02 06:35:42;;;;;;;18.93;12.87;;;;;;;9.18;100.00;95623.75;5075047;28;20280;-76
2022/01/02 06:38:15;;;;;;;16.10;11.00;;;;;;;9.11;100.00;95622.91;5066334;28;20205;-75
2022/01/02 06:40:43;;;;;;;17.00;11.40;;;;;;;9.25;100.00;95629.81;5069967;28;20219;-75
2022/01/02 06:43:13;;;;;;;16.43;11.73;;;;;;;9.30;100.00;95630.06;5072341;28;20205;-76
2022/01/02 06:45:41;;;;;;;21.33;14.10;;;;;;;9.17;100.00;95629.94;5071775;28;20211;-77
2022/01/02 06:48:09;;;;;;;18.77;12.10;;;;;;;9.03;100.00;95634.16;5073215;28;20296;-76
2022/01/02 06:50:39;;;;;;;19.57;12.00;;;;;;;8.98;100.00;95636.50;5073334;28;20255;-77
2022/01/02 06:53:07;;;;;;;19.47;12.47;;;;;;;8.99;100.00;95638.13;5070576;28;20198;-76
2022/01/02 06:55:35;;;;;;;19.03;12.30;;;;;;;8.97;100.00;95639.31;5072548;28;20205;-76
2022/01/02 06:58:05;;;;;;;18.00;11.80;;;;;;;8.99;100.00;95645.09;5068601;28;20262;-76
2022/01/02 07:00:34;;;;;;;17.00;11.10;;;;;;;9.00;100.00;95644.91;5070010;28;20652;-76
2022/01/02 07:03:01;;;;;;;17.93;10.60;;;;;;;9.04;100.00;95645.34;5076037;28;20233;-76
2022/01/02 07:05:30;;;;;;;16.47;11.07;;;;;;;9.07;100.00;95645.78;5069726;28;20973;-74
2022/01/02 07:08:00;;;;;;;15.23;10.43;;;;;;;9.06;100.00;95646.78;5067968;28;20213;-75
2022/01/02 07:10:28;;;;;;;14.60;10.00;;;;;;;9.16;100.00;95650.84;5069802;28;20202;-74
2022/01/02 07:12:56;;;;;;;14.73;9.33;;;;;;;9.15;100.00;95654.47;5068959;28;20208;-74
2022/01/02 07:15:24;;;;;;;13.93;10.10;;;;;;;9.17;100.00;95649.88;5070869;28;20284;-75
2022/01/02 07:17:52;;;;;;;12.50;9.20;;;;;;;9.18;100.00;95652.28;5069310;28;20251;-75
2022/01/02 07:20:20;;;;;;;15.07;9.93;;;;;;;9.16;100.00;95653.44;5075443;28;20196;-74
2022/01/02 07:22:53;;;;;;;16.43;10.90;;;;;;;9.16;100.00;95653.44;5070773;28;20197;-76
2022/01/02 07:25:23;;;;;;;15.10;9.83;;;;;;;9.12;100.00;95648.63;5068455;28;20704;-76
2022/01/02 07:27:50;;;;;;;17.13;11.60;;;;;;;9.12;100.00;95656.41;5073259;28;20201;-77
2022/01/02 07:30:17;;;;;;;15.30;10.00;;;;;;;9.15;100.00;95664.81;5068711;28;20225;-76
2022/01/02 07:32:45;;;;;;;14.43;9.90;;;;;;;9.16;100.00;95669.00;5072031;28;20317;-76
2022/01/02 07:35:12;;;;;;;12.63;9.13;;;;;;;9.22;100.00;95663.91;5069971;28;20564;-77
2022/01/02 07:37:39;;;;;;;12.43;9.07;;;;;;;9.20;100.00;95671.06;5070063;28;20258;-73
2022/01/02 07:40:08;;;;;;;16.90;10.43;;;;;;;9.28;100.00;95672.72;5067411;28;20205;-74
2022/01/02 07:42:37;;;;;;;15.80;10.07;;;;;;;9.38;100.00;95674.03;5068267;28;20201;-74
2022/01/02 07:45:05;;;;;;;17.53;9.87;;;;;;;9.44;100.00;95672.47;5068212;28;20983;-74
2022/01/02 07:47:32;;;;;;;23.47;10.73;;;;;;;9.45;100.00;95674.09;5068640;28;20215;-74
2022/01/02 07:49:59;;;;;;;21.97;13.40;;;;;;;9.45;100.00;95669.72;5067570;28;20213;-73
2022/01/02 07:52:26;;;;;;;18.80;11.80;;;;;;;9.52;100.00;95669.78;5068374;28;20292;-72
2022/01/02 07:54:54;;;;;;;20.50;12.23;;;;;;;9.56;100.00;95671.00;5071019;28;20197;-73
2022/01/02 07:57:21;;;;;;;21.10;12.13;;;;;;;9.59;100.00;95668.84;5068038;28;20690;-73
2022/01/02 07:59:49;;;;;;;19.83;12.90;;;;;;;9.54;100.00;95662.59;5068303;28;20216;-73
2022/01/02 08:02:17;;;;;;;19.10;13.27;;;;;;;9.60;100.00;95669.66;5068302;28;20197;-73
2022/01/02 08:04:44;;;;;;;18.20;12.53;;;;;;;9.66;100.00;95667.13;5068051;28;21006;-73
2022/01/02 08:07:11;;;;;;;15.83;11.13;;;;;;;9.73;100.00;95669.75;5068469;28;20197;-72
2022/01/02 08:09:38;;;;;;;18.47;12.97;;;;;;;9.73;100.00;95656.75;5067632;28;20209;-72
2022/01/02 08:12:06;;;;;;;20.57;13.63;;;;;;;9.83;100.00;95675.44;5067731;28;20208;-72
2022/01/02 08:14:33;;;;;;;20.00;13.90;;;;;;;9.88;100.00;95670.47;5067282;28;20201;-72
2022/01/02 08:17:01;;;;;;;18.63;13.13;;;;;;;9.89;100.00;95676.47;5075931;28;20206;-72
2022/01/02 08:19:29;;;;;;;21.17;14.40;;;;;;;9.89;100.00;95674.69;5067765;28;20212;-73
2022/01/02 08:21:56;;;;;;;20.20;13.77;;;;;;;10.00;100.00;95668.97;5067715;28;20872;-73
2022/01/02 08:24:23;;;;;;;16.30;10.60;;;;;;;9.97;100.00;95677.13;5067159;28;20225;-74
2022/01/02 08:26:51;;;;;;;22.10;13.53;;;;;;;9.93;100.00;95673.31;5067825;28;20213;-73
2022/01/02 08:29:19;;;;;;;18.00;11.30;;;;;;;9.94;100.00;95671.50;5077484;28;20799;-85
2022/01/02 08:31:46;;;;;;;15.30;11.03;;;;;;;9.98;100.00;95670.97;5072263;28;20229;-80
2022/01/02 08:34:15;;;;;;;19.50;13.03;;;;;;;9.99;100.00;95659.56;5074779;28;20567;-81
2022/01/02 08:36:43;;;;;;;24.70;15.43;;;;;;;10.11;100.00;95676.25;5078011;28;20301;-81
2022/01/02 08:39:14;;;;;;;14.30;10.20;;;;;;;10.14;100.00;95675.09;5071702;28;20205;-81
2022/01/02 08:41:41;;;;;;;19.27;12.27;;;;;;;10.19;100.00;95670.91;5079189;28;20205;-81
2022/01/02 08:44:08;;;;;;;19.00;13.10;;;;;;;10.23;100.00;95674.75;5081119;28;20216;-81
2022/01/02 08:46:35;;;;;;;21.73;14.33;;;;;;;10.27;100.00;95674.38;5076650;28;20203;-84
2022/01/02 08:49:03;;;;;;;18.47;12.10;;;;;;;10.29;100.00;95672.38;5074088;28;20214;-82
2022/01/02 08:51:31;;;;;;;21.40;13.90;;;;;;;10.41;100.00;95671.66;5071193;28;20749;-73
2022/01/02 08:53:58;;;;;;;23.30;15.17;;;;;;;10.44;100.00;95676.47;5071951;28;20213;-73
2022/01/02 08:56:25;;;;;;;20.07;13.00;;;;;;;10.50;100.00;95673.13;5069141;28;20205;-73
2022/01/02 08:58:53;;;;;;;29.03;17.00;;;;;;;10.51;100.00;95671.31;5068139;28;20208;-72
2022/01/02 09:01:20;;;;;;;22.53;13.40;;;;;;;10.59;100.00;95684.16;5068786;28;20842;-74
2022/01/02 09:03:50;;;;;;;25.13;15.90;;;;;;;10.62;100.00;95684.56;5066746;28;20240;-73
2022/01/02 09:06:19;;;;;;;27.03;16.87;;;;;;;10.70;100.00;95683.63;5068187;28;20674;-74
2022/01/02 09:08:51;;;;;;;25.97;16.70;;;;;;;10.72;100.00;95684.22;5072296;28;20201;-73
2022/01/02 09:11:19;;;;;;;21.03;13.67;;;;;;;10.57;100.00;95654.94;5072921;28;20240;-73
2022/01/02 09:13:52;;;;;;;17.37;11.97;;;;;;;10.71;100.00;95669.59;5069430;28;20209;-74
2022/01/02 09:16:19;;;;;;;20.63;11.13;;;;;;;10.75;100.00;95666.44;5073567;28;20195;-73
2022/01/02 09:18:47;;;;;;;17.13;11.43;;;;;;;10.80;100.00;95673.66;5068261;28;20194;-71
2022/01/02 09:21:14;;;;;;;16.97;11.20;;;;;;;10.89;100.00;95669.88;5068194;28;20692;-73
2022/01/02 09:23:41;;;;;;;13.97;10.43;;;;;;;10.80;100.00;95666.66;5066389;28;20227;-72
2022/01/02 09:26:12;;;;;;;15.80;10.37;;;;;;;10.75;100.00;95660.44;5067660;28;20244;-71
2022/01/02 09:28:40;;;;;;;18.80;12.03;;;;;;;10.68;100.00;95663.00;5065828;28;20271;-72
2022/01/02 09:31:07;;;;;;;15.43;9.87;;;;;;;10.67;100.00;95647.59;5067435;28;20197;-73
2022/01/02 09:33:34;;;;;;;10.83;8.00;;;;;;;10.68;100.00;95647.41;5069431;28;20201;-71
2022/01/02 09:36:02;;;;;;;9.97;7.17;;;;;;;10.54;100.00;95640.53;5072739;28;20197;-70
2022/01/02 09:38:33;;;;;;;12.30;7.57;;;;;;;10.61;100.00;95638.78;5069167;28;20193;-72
2022/01/02 09:41:01;;;;;;;21.57;12.70;;;;;;;10.85;100.00;95621.84;5067505;28;20212;-77
2022/01/02 09:43:33;;;;;;;23.23;13.93;;;;;;;10.99;100.00;95633.13;5075001;28;20204;-80
2022/01/02 09:46:03;;;;;;;17.90;11.90;;;;;;;11.18;100.00;95629.75;5075601;28;20774;-83
2022/01/02 09:48:31;;;;;;;12.23;8.90;;;;;;;11.14;98.56;95610.34;5083282;28;20254;-83
2022/01/02 09:51:01;;;;;;;11.27;7.90;;;;;;;11.18;98.32;95625.34;5079812;28;20291;-80
2022/01/02 09:53:28;;;;;;;10.27;7.43;;;;;;;10.88;98.78;95587.66;5086600;28;20209;-83
2022/01/02 09:55:55;;;;;;;10.47;8.10;;;;;;;11.06;99.70;95619.13;5081078;28;20748;-84
2022/01/02 09:58:22;;;;;;;13.50;9.70;;;;;;;11.06;100.00;95616.50;5080568;28;20668;-80
2022/01/02 10:00:53;;;;;;;11.57;7.90;;;;;;;11.65;99.06;95610.59;5085427;28;20208;-83
2022/01/02 10:03:20;;;;;;;10.43;6.80;;;;;;;13.18;90.76;95622.03;5072872;28;20197;-80
2022/01/02 10:05:52;;;;;;;6.90;5.13;;;;;;;15.12;81.29;95626.63;5075127;28;20221;-80
2022/01/02 10:08:23;;;;;;;6.60;5.30;;;;;;;16.44;74.20;95622.75;5081528;28;20663;-85
2022/01/02 10:10:58;;;;;;;5.93;4.93;;;;;;;17.36;70.40;95631.44;5082163;28;20188;-88
2022/01/02 10:13:38;;;;;;;7.90;5.77;;;;;;;18.23;67.67;95611.59;5088049;28;20618;-87
2022/01/02 10:16:20;;;;;;;7.30;5.90;;;;;;;18.51;67.49;95619.38;5087437;28;20196;-86
2022/01/02 10:18:48;;;;;;;11.43;6.87;;;;;;;19.20;64.65;95630.22;5073532;28;20966;-84
2022/01/02 10:21:31;;;;;;;6.83;4.73;;;;;;;20.14;60.96;95609.47;5078004;28;20204;-90
2022/01/02 10:24:21;;;;;;;9.50;6.20;;;;;;;20.01;61.41;95609.88;5079393;28;20581;-83
2022/01/02 10:27:22;;;;;;;9.83;6.10;;;;;;;21.15;57.88;95597.59;5079883;28;20193;-89
2022/01/02 10:29:51;;;;;;;5.73;4.83;;;;;;;21.87;51.46;95594.81;5074394;28;20233;-85
2022/01/02 10:32:43;;;;;;;5.70;4.43;;;;;;;21.04;51.04;95603.09;5078753;28;20304;-83
2022/01/02 10:35:17;;;;;;;7.03;5.00;;;;;;;21.02;51.20;95584.81;5077313;28;20201;-81
2022/01/02 10:37:49;;;;;;;5.80;4.90;;;;;;;20.95;51.47;95586.94;5078835;28;20200;-82
2022/01/02 10:40:29;;;;;;;8.27;5.72;;;;;;;21.90;49.48;95581.03;5085502;28;20201;-81
2022/01/02 10:42:57;;;;;;;6.40;5.10;;;;;;;21.92;49.29;95578.91;5075355;28;20201;-83
2022/01/02 10:45:36;;;;;;;8.80;5.75;;;;;;;22.55;47.44;95577.47;5076810;28;20295;-83
2022/01/02 10:48:07;;;;;;;5.63;4.63;;;;;;;22.44;47.21;95573.28;5088022;28;20939;-84
2022/01/02 10:50:34;;;;;;;5.82;4.70;;;;;;;21.09;49.38;95572.19;5081763;28;20227;-84
2022/01/02 10:53:13;;;;;;;5.53;4.60;;;;;;;20.48;51.70;95567.69;5089374;28;20208;-84
2022/01/02 10:55:40;;;;;;;8.07;5.22;;;;;;;20.92;50.93;95556.50;5082236;28;20205;-86
2022/01/02 10:58:09;;;;;;;5.30;3.75;;;;;;;21.35;49.02;95555.31;5079429;28;20197;-85
2022/01/02 11:00:37;;;;;;;8.48;5.47;;;;;;;22.10;47.20;95558.25;5079967;28;20239;-86
2022/01/02 11:03:08;;;;;;;5.70;4.80;;;;;;;22.67;45.65;95552.56;5076495;28;20241;-86
2022/01/02 11:05:36;;;;;;;8.68;6.00;;;;;;;22.56;45.62;95562.38;5073293;28;20724;-84
2022/01/02 11:08:10;;;;;;;5.25;4.22;;;;;;;21.18;48.04;95556.63;5080477;28;20220;-86
2022/01/02 11:10:37;;;;;;;7.53;4.72;;;;;;;21.52;48.21;95557.72;5086518;28;20197;-86
2022/01/02 11:13:06;;;;;;;7.35;4.63;;;;;;;21.61;48.23;95555.34;5080112;28;20238;-85
2022/01/02 11:15:34;;;;;;;5.22;4.30;;;;;;;22.18;47.24;95542.59;5083996;28;20208;-86
2022/01/02 11:18:02;;;;;;;5.35;4.38;;;;;;;22.95;45.73;95542.06;5074847;28;20195;-87
2022/01/02 11:20:32;;;;;;;8.70;4.50;;;;;;;22.53;45.20;95544.34;5083226;28;20232;-84
2022/01/02 11:23:06;;;;;;;6.68;5.05;;;;;;;22.44;45.92;95538.81;5073520;28;20664;-86
2022/01/02 11:25:40;;;;;;;6.55;5.18;;;;;;;23.25;44.10;95527.06;5079852;28;20208;-86
2022/01/02 11:28:17;;;;;;;7.43;4.88;;;;;;;23.43;43.96;95537.06;5086914;28;20247;-87
2022/01/02 11:30:44;;;;;;;7.43;4.25;;;;;;;23.55;43.67;95529.53;5074363;28;20328;-85
2022/01/02 11:33:13;;;;;;;4.22;3.40;;;;;;;24.58;41.46;95524.56;5073723;28;20209;-86